sensor_id;sensor_type;location;lat;lon;timestamp;pressure;altitude;pressure_sealevel;temperature;humidity
46211;BME280;52144;48.040;-1.594;2023-11-21T00:00:19;101127.75;;;15.24;100.00
46211;BME280;52144;48.040;-1.594;2023-11-21T00:02:47;101131.75;;;15.33;99.87
46211;BME280;52144;48.040;-1.594;2023-11-21T00:05:15;101130.72;;;15.50;99.05
46211;BME280;52144;48.040;-1.594;2023-11-21T00:07:44;101116.44;;;15.49;99.19
46211;BME280;52144;48.040;-1.594;2023-11-21T00:10:12;101121.88;;;15.33;99.29
46211;BME280;52144;48.040;-1.594;2023-11-21T00:12:42;101125.97;;;15.69;98.91
46211;BME280;52144;48.040;-1.594;2023-11-21T00:15:10;101122.59;;;15.81;98.25
46211;BME280;52144;48.040;-1.594;2023-11-21T00:17:40;101121.91;;;15.78;97.16
46211;BME280;52144;48.040;-1.594;2023-11-21T00:20:09;101118.97;;;15.67;98.97
46211;BME280;52144;48.040;-1.594;2023-11-21T00:22:40;101119.97;;;15.35;100.00
46211;BME280;52144;48.040;-1.594;2023-11-21T00:25:09;101117.66;;;15.13;100.00
46211;BME280;52144;48.040;-1.594;2023-11-21T00:27:38;101124.28;;;15.38;100.00
46211;BME280;52144;48.040;-1.594;2023-11-21T00:30:06;101124.03;;;14.96;100.00
46211;BME280;52144;48.040;-1.594;2023-11-21T00:32:35;101129.06;;;14.87;100.00
46211;BME280;52144;48.040;-1.594;2023-11-21T00:35:04;101127.19;;;15.19;100.00
46211;BME280;52144;48.040;-1.594;2023-11-21T00:37:32;101132.47;;;15.20;100.00
46211;BME280;52144;48.040;-1.594;2023-11-21T00:40:00;101122.78;;;15.02;100.00
46211;BME280;52144;48.040;-1.594;2023-11-21T00:42:32;101135.75;;;15.10;100.00
46211;BME280;52144;48.040;-1.594;2023-11-21T00:45:01;101140.53;;;15.20;100.00
46211;BME280;52144;48.040;-1.594;2023-11-21T00:47:30;101147.00;;;15.47;100.00
46211;BME280;52144;48.040;-1.594;2023-11-21T00:49:58;101146.94;;;15.48;100.00
46211;BME280;52144;48.040;-1.594;2023-11-21T00:52:25;101146.75;;;15.51;99.16
46211;BME280;52144;48.040;-1.594;2023-11-21T00:54:53;101140.34;;;15.23;100.00
46211;BME280;52144;48.040;-1.594;2023-11-21T00:57:21;101143.56;;;15.14;100.00
46211;BME280;52144;48.040;-1.594;2023-11-21T00:59:50;101141.41;;;15.05;100.00
46211;BME280;52144;48.040;-1.594;2023-11-21T01:02:18;101141.53;;;15.18;100.00
46211;BME280;52144;48.040;-1.594;2023-11-21T01:04:46;101145.13;;;15.18;100.00
46211;BME280;52144;48.040;-1.594;2023-11-21T01:07:14;101145.63;;;15.25;100.00
46211;BME280;52144;48.040;-1.594;2023-11-21T01:09:42;101147.19;;;15.13;100.00
46211;BME280;52144;48.040;-1.594;2023-11-21T01:12:10;101142.78;;;15.12;100.00
46211;BME280;52144;48.040;-1.594;2023-11-21T01:14:38;101141.03;;;15.11;100.00
46211;BME280;52144;48.040;-1.594;2023-11-21T01:17:07;101152.69;;;15.26;100.00
46211;BME280;52144;48.040;-1.594;2023-11-21T01:19:35;101144.44;;;15.15;100.00
46211;BME280;52144;48.040;-1.594;2023-11-21T01:22:04;101150.84;;;15.12;100.00
46211;BME280;52144;48.040;-1.594;2023-11-21T01:24:31;101149.31;;;14.92;100.00
46211;BME280;52144;48.040;-1.594;2023-11-21T01:26:59;101151.53;;;15.00;100.00
46211;BME280;52144;48.040;-1.594;2023-11-21T01:29:27;101146.69;;;14.91;100.00
46211;BME280;52144;48.040;-1.594;2023-11-21T01:31:55;101150.41;;;15.04;99.86
46211;BME280;52144;48.040;-1.594;2023-11-21T01:34:25;101156.72;;;15.19;100.00
46211;BME280;52144;48.040;-1.594;2023-11-21T01:36:53;101156.53;;;15.06;100.00
46211;BME280;52144;48.040;-1.594;2023-11-21T01:39:21;101160.34;;;15.02;100.00
46211;BME280;52144;48.040;-1.594;2023-11-21T01:41:51;101163.28;;;15.29;99.27
46211;BME280;52144;48.040;-1.594;2023-11-21T01:44:19;101167.88;;;15.27;98.51
46211;BME280;52144;48.040;-1.594;2023-11-21T01:46:47;101169.13;;;14.74;100.00
46211;BME280;52144;48.040;-1.594;2023-11-21T01:49:15;101167.16;;;14.44;100.00
46211;BME280;52144;48.040;-1.594;2023-11-21T01:51:47;101169.63;;;14.80;99.95
46211;BME280;52144;48.040;-1.594;2023-11-21T01:54:16;101175.81;;;14.49;100.00
46211;BME280;52144;48.040;-1.594;2023-11-21T01:56:46;101171.34;;;14.81;98.55
46211;BME280;52144;48.040;-1.594;2023-11-21T01:59:18;101172.41;;;14.95;98.88
46211;BME280;52144;48.040;-1.594;2023-11-21T02:01:47;101182.94;;;14.33;100.00
46211;BME280;52144;48.040;-1.594;2023-11-21T02:04:17;101179.97;;;14.55;100.00
46211;BME280;52144;48.040;-1.594;2023-11-21T02:06:47;101175.59;;;14.85;99.44
46211;BME280;52144;48.040;-1.594;2023-11-21T02:09:15;101175.34;;;14.74;99.04
46211;BME280;52144;48.040;-1.594;2023-11-21T02:11:42;101201.28;;;14.58;100.00
46211;BME280;52144;48.040;-1.594;2023-11-21T02:14:10;101191.53;;;14.73;98.74
46211;BME280;52144;48.040;-1.594;2023-11-21T02:16:40;101191.66;;;14.20;100.00
46211;BME280;52144;48.040;-1.594;2023-11-21T02:19:10;101184.97;;;14.78;100.00
46211;BME280;52144;48.040;-1.594;2023-11-21T02:21:39;101195.25;;;14.70;98.21
46211;BME280;52144;48.040;-1.594;2023-11-21T02:24:09;101183.91;;;14.65;98.67
46211;BME280;52144;48.040;-1.594;2023-11-21T02:26:36;101195.31;;;14.69;98.64
46211;BME280;52144;48.040;-1.594;2023-11-21T02:29:04;101183.31;;;14.76;97.90
46211;BME280;52144;48.040;-1.594;2023-11-21T02:31:32;101193.78;;;14.80;97.27
46211;BME280;52144;48.040;-1.594;2023-11-21T02:33:59;101197.59;;;14.43;96.67
46211;BME280;52144;48.040;-1.594;2023-11-21T02:36:27;101203.63;;;14.64;97.93
46211;BME280;52144;48.040;-1.594;2023-11-21T02:38:56;101200.53;;;14.72;95.57
46211;BME280;52144;48.040;-1.594;2023-11-21T02:41:25;101201.88;;;14.63;96.54
46211;BME280;52144;48.040;-1.594;2023-11-21T02:43:53;101204.09;;;14.55;96.34
46211;BME280;52144;48.040;-1.594;2023-11-21T02:46:21;101208.13;;;14.79;96.42
46211;BME280;52144;48.040;-1.594;2023-11-21T02:48:49;101204.34;;;14.68;95.58
46211;BME280;52144;48.040;-1.594;2023-11-21T02:51:17;101203.97;;;14.58;97.72
46211;BME280;52144;48.040;-1.594;2023-11-21T02:53:45;101206.56;;;14.75;95.74
46211;BME280;52144;48.040;-1.594;2023-11-21T02:56:13;101211.06;;;14.59;96.87
46211;BME280;52144;48.040;-1.594;2023-11-21T02:58:43;101210.19;;;14.58;95.60
46211;BME280;52144;48.040;-1.594;2023-11-21T03:01:11;101214.47;;;14.45;95.73
46211;BME280;52144;48.040;-1.594;2023-11-21T03:03:39;101207.41;;;14.27;97.66
46211;BME280;52144;48.040;-1.594;2023-11-21T03:06:08;101215.56;;;14.08;99.75
46211;BME280;52144;48.040;-1.594;2023-11-21T03:08:36;101212.72;;;14.61;98.52
46211;BME280;52144;48.040;-1.594;2023-11-21T03:11:04;101202.94;;;14.27;98.25
46211;BME280;52144;48.040;-1.594;2023-11-21T03:13:32;101210.84;;;14.46;98.12
46211;BME280;52144;48.040;-1.594;2023-11-21T03:16:01;101213.66;;;14.43;98.27
46211;BME280;52144;48.040;-1.594;2023-11-21T03:18:29;101219.81;;;14.62;96.79
46211;BME280;52144;48.040;-1.594;2023-11-21T03:20:56;101215.94;;;14.51;95.31
46211;BME280;52144;48.040;-1.594;2023-11-21T03:23:24;101206.22;;;14.81;94.97
46211;BME280;52144;48.040;-1.594;2023-11-21T03:25:52;101205.38;;;14.97;93.71
46211;BME280;52144;48.040;-1.594;2023-11-21T03:28:20;101213.16;;;14.85;93.93
46211;BME280;52144;48.040;-1.594;2023-11-21T03:30:47;101226.00;;;14.96;92.81
46211;BME280;52144;48.040;-1.594;2023-11-21T03:33:17;101233.50;;;15.05;93.05
46211;BME280;52144;48.040;-1.594;2023-11-21T03:35:44;101233.59;;;14.72;93.27
46211;BME280;52144;48.040;-1.594;2023-11-21T03:38:12;101224.06;;;14.82;92.20
46211;BME280;52144;48.040;-1.594;2023-11-21T03:40:40;101230.66;;;14.93;92.58
46211;BME280;52144;48.040;-1.594;2023-11-21T03:43:08;101226.13;;;14.61;92.96
46211;BME280;52144;48.040;-1.594;2023-11-21T03:45:36;101224.38;;;14.27;94.53
46211;BME280;52144;48.040;-1.594;2023-11-21T03:48:04;101237.22;;;14.20;95.31
46211;BME280;52144;48.040;-1.594;2023-11-21T03:50:33;101231.44;;;14.45;94.32
46211;BME280;52144;48.040;-1.594;2023-11-21T03:53:01;101238.50;;;14.47;95.12
46211;BME280;52144;48.040;-1.594;2023-11-21T03:55:30;101233.00;;;14.50;91.98
46211;BME280;52144;48.040;-1.594;2023-11-21T03:57:58;101240.41;;;14.62;94.43
46211;BME280;52144;48.040;-1.594;2023-11-21T04:00:26;101239.22;;;14.68;91.50
46211;BME280;52144;48.040;-1.594;2023-11-21T04:02:54;101252.31;;;14.39;92.79
46211;BME280;52144;48.040;-1.594;2023-11-21T04:05:23;101258.25;;;14.45;92.21
46211;BME280;52144;48.040;-1.594;2023-11-21T04:07:52;101252.28;;;14.74;91.42
46211;BME280;52144;48.040;-1.594;2023-11-21T04:10:20;101258.78;;;14.70;91.72
46211;BME280;52144;48.040;-1.594;2023-11-21T04:12:48;101256.94;;;14.70;89.75
46211;BME280;52144;48.040;-1.594;2023-11-21T04:15:16;101258.44;;;14.76;90.40
46211;BME280;52144;48.040;-1.594;2023-11-21T04:17:43;101260.22;;;14.59;93.02
46211;BME280;52144;48.040;-1.594;2023-11-21T04:20:12;101264.03;;;14.71;91.48
46211;BME280;52144;48.040;-1.594;2023-11-21T04:22:40;101260.06;;;14.78;92.15
46211;BME280;52144;48.040;-1.594;2023-11-21T04:25:13;101261.84;;;14.62;92.75
46211;BME280;52144;48.040;-1.594;2023-11-21T04:27:42;101266.28;;;14.79;91.91
46211;BME280;52144;48.040;-1.594;2023-11-21T04:30:12;101264.25;;;14.84;91.49
46211;BME280;52144;48.040;-1.594;2023-11-21T04:32:40;101264.53;;;14.62;90.55
46211;BME280;52144;48.040;-1.594;2023-11-21T04:35:08;101265.00;;;14.53;89.60
46211;BME280;52144;48.040;-1.594;2023-11-21T04:37:36;101265.66;;;14.58;90.79
46211;BME280;52144;48.040;-1.594;2023-11-21T04:40:05;101272.25;;;14.51;93.34
46211;BME280;52144;48.040;-1.594;2023-11-21T04:42:35;101273.53;;;14.61;93.22
46211;BME280;52144;48.040;-1.594;2023-11-21T04:45:04;101267.03;;;14.65;95.76
46211;BME280;52144;48.040;-1.594;2023-11-21T04:47:35;101267.34;;;14.76;94.96
46211;BME280;52144;48.040;-1.594;2023-11-21T04:50:05;101278.72;;;14.64;95.18
46211;BME280;52144;48.040;-1.594;2023-11-21T04:52:33;101278.66;;;14.81;95.47
46211;BME280;52144;48.040;-1.594;2023-11-21T04:55:01;101280.59;;;14.95;95.24
46211;BME280;52144;48.040;-1.594;2023-11-21T04:57:29;101284.03;;;14.81;95.91
46211;BME280;52144;48.040;-1.594;2023-11-21T04:59:58;101285.25;;;14.92;94.21
46211;BME280;52144;48.040;-1.594;2023-11-21T05:02:26;101287.44;;;15.01;95.41
46211;BME280;52144;48.040;-1.594;2023-11-21T05:05:01;101290.91;;;15.03;93.46
46211;BME280;52144;48.040;-1.594;2023-11-21T05:07:32;101286.31;;;15.05;92.13
46211;BME280;52144;48.040;-1.594;2023-11-21T05:10:04;101292.63;;;14.88;93.27
46211;BME280;52144;48.040;-1.594;2023-11-21T05:12:34;101293.94;;;14.97;92.73
46211;BME280;52144;48.040;-1.594;2023-11-21T05:15:06;101303.31;;;14.72;94.14
46211;BME280;52144;48.040;-1.594;2023-11-21T05:17:37;101303.94;;;14.77;95.49
46211;BME280;52144;48.040;-1.594;2023-11-21T05:20:09;101300.06;;;14.83;94.91
46211;BME280;52144;48.040;-1.594;2023-11-21T05:22:38;101308.88;;;14.85;94.68
46211;BME280;52144;48.040;-1.594;2023-11-21T05:25:06;101307.28;;;14.65;93.80
46211;BME280;52144;48.040;-1.594;2023-11-21T05:27:35;101304.69;;;14.29;97.07
46211;BME280;52144;48.040;-1.594;2023-11-21T05:30:05;101306.97;;;14.36;94.89
46211;BME280;52144;48.040;-1.594;2023-11-21T05:32:36;101322.28;;;14.34;95.39
46211;BME280;52144;48.040;-1.594;2023-11-21T05:35:04;101327.56;;;14.36;96.44
46211;BME280;52144;48.040;-1.594;2023-11-21T05:37:36;101322.59;;;14.45;94.29
46211;BME280;52144;48.040;-1.594;2023-11-21T05:40:06;101322.50;;;14.47;94.66
46211;BME280;52144;48.040;-1.594;2023-11-21T05:42:35;101322.25;;;14.52;95.25
46211;BME280;52144;48.040;-1.594;2023-11-21T05:45:06;101332.38;;;14.64;93.38
46211;BME280;52144;48.040;-1.594;2023-11-21T05:47:38;101323.97;;;14.53;92.91
46211;BME280;52144;48.040;-1.594;2023-11-21T05:50:08;101333.63;;;14.57;94.79
46211;BME280;52144;48.040;-1.594;2023-11-21T05:52:38;101339.63;;;14.62;93.90
46211;BME280;52144;48.040;-1.594;2023-11-21T05:55:07;101343.69;;;14.87;94.40
46211;BME280;52144;48.040;-1.594;2023-11-21T05:57:35;101338.31;;;14.87;92.96
46211;BME280;52144;48.040;-1.594;2023-11-21T06:00:06;101347.97;;;14.73;91.81
46211;BME280;52144;48.040;-1.594;2023-11-21T06:02:39;101353.97;;;14.78;90.89
46211;BME280;52144;48.040;-1.594;2023-11-21T06:05:08;101350.16;;;14.82;91.19
46211;BME280;52144;48.040;-1.594;2023-11-21T06:07:37;101345.41;;;14.88;92.51
46211;BME280;52144;48.040;-1.594;2023-11-21T06:10:07;101340.94;;;14.88;91.27
46211;BME280;52144;48.040;-1.594;2023-11-21T06:12:37;101338.47;;;14.83;90.17
46211;BME280;52144;48.040;-1.594;2023-11-21T06:15:07;101345.28;;;14.73;89.45
46211;BME280;52144;48.040;-1.594;2023-11-21T06:17:35;101339.97;;;14.56;88.85
46211;BME280;52144;48.040;-1.594;2023-11-21T06:20:05;101336.53;;;14.35;90.89
46211;BME280;52144;48.040;-1.594;2023-11-21T06:22:36;101341.50;;;14.42;90.98
46211;BME280;52144;48.040;-1.594;2023-11-21T06:25:05;101343.56;;;14.37;90.63
46211;BME280;52144;48.040;-1.594;2023-11-21T06:27:36;101343.72;;;14.34;90.40
46211;BME280;52144;48.040;-1.594;2023-11-21T06:30:07;101355.41;;;14.33;90.46
46211;BME280;52144;48.040;-1.594;2023-11-21T06:32:36;101354.81;;;14.27;90.64
46211;BME280;52144;48.040;-1.594;2023-11-21T06:35:06;101370.34;;;14.20;90.33
46211;BME280;52144;48.040;-1.594;2023-11-21T06:37:34;101376.84;;;14.33;92.21
46211;BME280;52144;48.040;-1.594;2023-11-21T06:40:03;101370.69;;;14.49;92.73
46211;BME280;52144;48.040;-1.594;2023-11-21T06:42:31;101369.38;;;14.57;93.11
46211;BME280;52144;48.040;-1.594;2023-11-21T06:45:00;101370.78;;;14.64;93.04
46211;BME280;52144;48.040;-1.594;2023-11-21T06:47:31;101378.75;;;14.66;91.44
46211;BME280;52144;48.040;-1.594;2023-11-21T06:50:00;101382.56;;;14.43;91.49
46211;BME280;52144;48.040;-1.594;2023-11-21T06:52:28;101379.00;;;14.61;93.76
46211;BME280;52144;48.040;-1.594;2023-11-21T06:54:55;101386.47;;;14.72;93.39
46211;BME280;52144;48.040;-1.594;2023-11-21T06:57:23;101391.66;;;14.75;92.83
46211;BME280;52144;48.040;-1.594;2023-11-21T06:59:51;101388.97;;;14.75;92.68
46211;BME280;52144;48.040;-1.594;2023-11-21T07:02:19;101399.56;;;14.78;92.31
46211;BME280;52144;48.040;-1.594;2023-11-21T07:04:48;101395.59;;;14.51;91.92
46211;BME280;52144;48.040;-1.594;2023-11-21T07:07:17;101405.81;;;14.61;92.90
46211;BME280;52144;48.040;-1.594;2023-11-21T07:09:45;101407.09;;;14.72;93.05
46211;BME280;52144;48.040;-1.594;2023-11-21T07:12:14;101406.66;;;14.79;92.86
46211;BME280;52144;48.040;-1.594;2023-11-21T07:14:42;101411.88;;;14.82;92.58
46211;BME280;52144;48.040;-1.594;2023-11-21T07:17:11;101426.00;;;14.69;91.35
46211;BME280;52144;48.040;-1.594;2023-11-21T07:19:39;101427.03;;;14.66;93.73
46211;BME280;52144;48.040;-1.594;2023-11-21T07:22:09;101435.22;;;14.63;93.26
46211;BME280;52144;48.040;-1.594;2023-11-21T07:24:37;101440.19;;;14.71;93.13
46211;BME280;52144;48.040;-1.594;2023-11-21T07:27:05;101440.13;;;14.72;92.37
46211;BME280;52144;48.040;-1.594;2023-11-21T07:29:32;101453.72;;;14.50;93.13
46211;BME280;52144;48.040;-1.594;2023-11-21T07:32:00;101457.31;;;14.68;93.73
46211;BME280;52144;48.040;-1.594;2023-11-21T07:34:28;101453.84;;;14.66;92.73
46211;BME280;52144;48.040;-1.594;2023-11-21T07:36:56;101458.84;;;14.55;93.45
46211;BME280;52144;48.040;-1.594;2023-11-21T07:39:25;101455.75;;;14.64;93.76
46211;BME280;52144;48.040;-1.594;2023-11-21T07:41:53;101455.03;;;14.60;94.32
46211;BME280;52144;48.040;-1.594;2023-11-21T07:44:21;101463.47;;;14.70;94.39
46211;BME280;52144;48.040;-1.594;2023-11-21T07:46:49;101462.69;;;14.68;94.08
46211;BME280;52144;48.040;-1.594;2023-11-21T07:49:17;101466.00;;;14.73;94.80
46211;BME280;52144;48.040;-1.594;2023-11-21T07:51:47;101461.34;;;14.77;93.50
46211;BME280;52144;48.040;-1.594;2023-11-21T07:54:15;101469.25;;;14.80;94.17
46211;BME280;52144;48.040;-1.594;2023-11-21T07:56:44;101477.38;;;14.78;93.74
46211;BME280;52144;48.040;-1.594;2023-11-21T07:59:12;101475.06;;;14.71;93.07
46211;BME280;52144;48.040;-1.594;2023-11-21T08:01:40;101470.53;;;14.54;93.37
46211;BME280;52144;48.040;-1.594;2023-11-21T08:04:09;101465.06;;;14.38;93.57
46211;BME280;52144;48.040;-1.594;2023-11-21T08:06:37;101470.09;;;14.27;94.42
46211;BME280;52144;48.040;-1.594;2023-11-21T08:09:05;101470.50;;;13.81;98.16
46211;BME280;52144;48.040;-1.594;2023-11-21T08:11:34;101472.97;;;14.04;97.64
46211;BME280;52144;48.040;-1.594;2023-11-21T08:14:06;101469.53;;;14.20;97.00
46211;BME280;52144;48.040;-1.594;2023-11-21T08:16:34;101475.84;;;14.00;97.97
46211;BME280;52144;48.040;-1.594;2023-11-21T08:19:02;101479.91;;;13.90;99.20
46211;BME280;52144;48.040;-1.594;2023-11-21T08:21:30;101484.38;;;14.08;97.96
46211;BME280;52144;48.040;-1.594;2023-11-21T08:23:58;101485.50;;;14.40;96.35
46211;BME280;52144;48.040;-1.594;2023-11-21T08:26:26;101484.16;;;14.68;94.51
46211;BME280;52144;48.040;-1.594;2023-11-21T08:28:54;101492.03;;;14.35;92.52
46211;BME280;52144;48.040;-1.594;2023-11-21T08:31:27;101491.47;;;14.28;94.28
46211;BME280;52144;48.040;-1.594;2023-11-21T08:33:55;101500.84;;;14.37;93.69
46211;BME280;52144;48.040;-1.594;2023-11-21T08:36:23;101505.75;;;14.65;95.27
46211;BME280;52144;48.040;-1.594;2023-11-21T08:38:51;101506.72;;;14.64;92.44
46211;BME280;52144;48.040;-1.594;2023-11-21T08:41:19;101515.69;;;14.63;95.50
46211;BME280;52144;48.040;-1.594;2023-11-21T08:43:49;101514.44;;;14.70;94.73
46211;BME280;52144;48.040;-1.594;2023-11-21T08:46:18;101516.81;;;14.94;93.53
46211;BME280;52144;48.040;-1.594;2023-11-21T08:48:48;101510.31;;;14.63;95.54
46211;BME280;52144;48.040;-1.594;2023-11-21T08:51:19;101525.47;;;14.81;93.37
46211;BME280;52144;48.040;-1.594;2023-11-21T08:53:46;101520.75;;;14.69;92.15
46211;BME280;52144;48.040;-1.594;2023-11-21T08:56:14;101520.78;;;14.87;93.59
46211;BME280;52144;48.040;-1.594;2023-11-21T08:58:42;101516.81;;;14.94;91.77
46211;BME280;52144;48.040;-1.594;2023-11-21T09:01:10;101530.78;;;14.83;92.06
46211;BME280;52144;48.040;-1.594;2023-11-21T09:03:39;101532.44;;;14.85;92.89
46211;BME280;52144;48.040;-1.594;2023-11-21T09:06:11;101523.59;;;15.01;92.40
46211;BME280;52144;48.040;-1.594;2023-11-21T09:08:40;101530.84;;;14.81;91.35
46211;BME280;52144;48.040;-1.594;2023-11-21T09:11:10;101529.44;;;15.09;90.39
46211;BME280;52144;48.040;-1.594;2023-11-21T09:13:37;101527.69;;;15.08;91.97
46211;BME280;52144;48.040;-1.594;2023-11-21T09:16:06;101528.22;;;15.32;91.56
46211;BME280;52144;48.040;-1.594;2023-11-21T09:18:33;101534.91;;;14.90;91.82
46211;BME280;52144;48.040;-1.594;2023-11-21T09:21:01;101538.44;;;14.91;90.80
46211;BME280;52144;48.040;-1.594;2023-11-21T09:23:32;101542.63;;;15.14;91.48
46211;BME280;52144;48.040;-1.594;2023-11-21T09:26:00;101537.19;;;15.15;92.85
46211;BME280;52144;48.040;-1.594;2023-11-21T09:28:28;101536.75;;;15.40;90.56
46211;BME280;52144;48.040;-1.594;2023-11-21T09:30:56;101550.03;;;15.26;90.82
46211;BME280;52144;48.040;-1.594;2023-11-21T09:33:23;101549.09;;;15.27;89.89
46211;BME280;52144;48.040;-1.594;2023-11-21T09:35:52;101551.00;;;15.25;88.61
46211;BME280;52144;48.040;-1.594;2023-11-21T09:38:20;101554.38;;;14.94;92.00
46211;BME280;52144;48.040;-1.594;2023-11-21T09:40:49;101566.22;;;15.42;91.91
46211;BME280;52144;48.040;-1.594;2023-11-21T09:43:20;101560.03;;;15.57;89.68
46211;BME280;52144;48.040;-1.594;2023-11-21T09:45:56;101566.53;;;15.36;93.31
46211;BME280;52144;48.040;-1.594;2023-11-21T09:48:25;101568.97;;;15.40;92.12
46211;BME280;52144;48.040;-1.594;2023-11-21T09:50:54;101564.84;;;15.51;91.49
46211;BME280;52144;48.040;-1.594;2023-11-21T09:53:21;101578.34;;;15.84;90.49
46211;BME280;52144;48.040;-1.594;2023-11-21T09:55:53;101570.00;;;15.38;91.88
46211;BME280;52144;48.040;-1.594;2023-11-21T09:58:21;101585.78;;;15.44;91.79
46211;BME280;52144;48.040;-1.594;2023-11-21T10:00:53;101584.13;;;15.76;90.80
46211;BME280;52144;48.040;-1.594;2023-11-21T10:03:23;101598.09;;;15.83;90.32
46211;BME280;52144;48.040;-1.594;2023-11-21T10:05:53;101611.41;;;16.02;89.73
46211;BME280;52144;48.040;-1.594;2023-11-21T10:08:27;101613.94;;;15.37;91.46
46211;BME280;52144;48.040;-1.594;2023-11-21T10:11:14;101619.34;;;15.53;91.35
46211;BME280;52144;48.040;-1.594;2023-11-21T10:13:43;101612.56;;;15.28;93.76
46211;BME280;52144;48.040;-1.594;2023-11-21T10:16:14;101618.16;;;15.58;90.69
46211;BME280;52144;48.040;-1.594;2023-11-21T10:18:43;101618.00;;;15.79;90.58
46211;BME280;52144;48.040;-1.594;2023-11-21T10:21:12;101622.34;;;15.47;91.10
46211;BME280;52144;48.040;-1.594;2023-11-21T10:23:40;101625.72;;;16.02;91.11
46211;BME280;52144;48.040;-1.594;2023-11-21T10:26:13;101623.88;;;16.03;89.37
46211;BME280;52144;48.040;-1.594;2023-11-21T10:28:57;101631.09;;;16.02;88.44
46211;BME280;52144;48.040;-1.594;2023-11-21T10:31:26;101630.94;;;15.71;90.91
46211;BME280;52144;48.040;-1.594;2023-11-21T10:33:54;101641.06;;;15.13;93.85
46211;BME280;52144;48.040;-1.594;2023-11-21T10:36:25;101639.38;;;15.47;92.11
46211;BME280;52144;48.040;-1.594;2023-11-21T10:38:54;101642.13;;;15.80;91.67
46211;BME280;52144;48.040;-1.594;2023-11-21T10:41:24;101638.25;;;15.86;90.47
46211;BME280;52144;48.040;-1.594;2023-11-21T10:43:53;101646.38;;;16.18;88.21
46211;BME280;52144;48.040;-1.594;2023-11-21T10:46:22;101635.25;;;15.75;92.06
46211;BME280;52144;48.040;-1.594;2023-11-21T10:48:52;101652.94;;;15.96;89.85
46211;BME280;52144;48.040;-1.594;2023-11-21T10:51:21;101648.53;;;16.11;90.07
46211;BME280;52144;48.040;-1.594;2023-11-21T10:53:51;101643.59;;;16.19;90.83
46211;BME280;52144;48.040;-1.594;2023-11-21T10:56:19;101652.34;;;15.74;92.46
46211;BME280;52144;48.040;-1.594;2023-11-21T10:58:50;101662.63;;;15.99;91.60
46211;BME280;52144;48.040;-1.594;2023-11-21T11:01:19;101657.31;;;15.81;91.84
46211;BME280;52144;48.040;-1.594;2023-11-21T11:03:49;101655.84;;;15.57;90.57
46211;BME280;52144;48.040;-1.594;2023-11-21T11:06:21;101647.22;;;16.02;89.67
46211;BME280;52144;48.040;-1.594;2023-11-21T11:08:50;101656.53;;;15.95;91.51
46211;BME280;52144;48.040;-1.594;2023-11-21T11:11:18;101666.97;;;16.01;90.58
46211;BME280;52144;48.040;-1.594;2023-11-21T11:13:46;101656.41;;;15.81;90.62
46211;BME280;52144;48.040;-1.594;2023-11-21T11:16:15;101662.38;;;16.03;89.77
46211;BME280;52144;48.040;-1.594;2023-11-21T11:18:45;101662.97;;;15.93;88.79
46211;BME280;52144;48.040;-1.594;2023-11-21T11:21:24;101664.59;;;15.95;90.24
46211;BME280;52144;48.040;-1.594;2023-11-21T11:26:55;101663.00;;;16.09;88.24
46211;BME280;52144;48.040;-1.594;2023-11-21T11:29:31;101660.13;;;16.12;88.93
46211;BME280;52144;48.040;-1.594;2023-11-21T11:32:12;101664.91;;;16.07;89.13
46211;BME280;52144;48.040;-1.594;2023-11-21T11:34:44;101659.91;;;16.16;87.98
46211;BME280;52144;48.040;-1.594;2023-11-21T11:37:15;101653.97;;;16.10;88.29
46211;BME280;52144;48.040;-1.594;2023-11-21T11:39:43;101657.88;;;16.53;86.03
46211;BME280;52144;48.040;-1.594;2023-11-21T11:42:13;101658.63;;;16.39;88.42
46211;BME280;52144;48.040;-1.594;2023-11-21T11:44:48;101659.69;;;16.37;86.66
46211;BME280;52144;48.040;-1.594;2023-11-21T11:47:23;101653.88;;;16.29;86.76
46211;BME280;52144;48.040;-1.594;2023-11-21T11:50:01;101658.75;;;16.54;86.37
46211;BME280;52144;48.040;-1.594;2023-11-21T11:52:35;101656.78;;;16.24;87.44
46211;BME280;52144;48.040;-1.594;2023-11-21T11:55:05;101658.13;;;16.33;87.17
46211;BME280;52144;48.040;-1.594;2023-11-21T11:57:34;101655.28;;;16.52;85.63
46211;BME280;52144;48.040;-1.594;2023-11-21T12:00:12;101654.66;;;15.97;86.50
46211;BME280;52144;48.040;-1.594;2023-11-21T12:02:46;101660.19;;;15.94;86.25
46211;BME280;52144;48.040;-1.594;2023-11-21T12:05:16;101668.94;;;16.31;87.05
46211;BME280;52144;48.040;-1.594;2023-11-21T12:07:46;101665.13;;;15.86;87.96
46211;BME280;52144;48.040;-1.594;2023-11-21T12:10:16;101662.34;;;15.70;89.38
46211;BME280;52144;48.040;-1.594;2023-11-21T12:12:46;101664.66;;;16.11;86.21
46211;BME280;52144;48.040;-1.594;2023-11-21T12:15:14;101661.47;;;16.36;86.06
46211;BME280;52144;48.040;-1.594;2023-11-21T12:17:44;101661.28;;;16.57;85.90
46211;BME280;52144;48.040;-1.594;2023-11-21T12:20:13;101657.97;;;16.99;82.99
46211;BME280;52144;48.040;-1.594;2023-11-21T12:22:45;101660.50;;;16.55;82.59
46211;BME280;52144;48.040;-1.594;2023-11-21T12:25:17;101655.91;;;16.57;86.09
46211;BME280;52144;48.040;-1.594;2023-11-21T12:27:48;101652.63;;;16.83;83.17
46211;BME280;52144;48.040;-1.594;2023-11-21T12:30:17;101654.06;;;16.73;85.37
46211;BME280;52144;48.040;-1.594;2023-11-21T12:32:50;101666.38;;;16.93;82.61
46211;BME280;52144;48.040;-1.594;2023-11-21T12:35:19;101663.50;;;16.64;82.32
46211;BME280;52144;48.040;-1.594;2023-11-21T12:37:48;101667.56;;;16.40;82.26
46211;BME280;52144;48.040;-1.594;2023-11-21T12:40:17;101674.97;;;16.03;84.48
46211;BME280;52144;48.040;-1.594;2023-11-21T12:42:47;101675.50;;;16.10;84.40
46211;BME280;52144;48.040;-1.594;2023-11-21T12:45:20;101677.31;;;15.76;84.80
46211;BME280;52144;48.040;-1.594;2023-11-21T12:47:51;101683.97;;;15.67;84.50
46211;BME280;52144;48.040;-1.594;2023-11-21T12:50:19;101688.66;;;15.63;86.02